createdAt,value
2023-04-04T00:00:17.777Z,101548.13
2023-04-04T00:03:06.700Z,101550.31
2023-04-04T00:05:55.412Z,101541.47
2023-04-04T00:08:45.406Z,101549.47
2023-04-04T00:11:34.049Z,101547.81
2023-04-04T00:14:22.725Z,101546.81
2023-04-04T00:17:11.390Z,101544.81
2023-04-04T00:19:59.991Z,101542.13
2023-04-04T00:22:48.575Z,101541.47
2023-04-04T00:25:38.847Z,101537.31
2023-04-04T00:28:27.881Z,101533.16
2023-04-04T00:31:16.959Z,101538.16
2023-04-04T00:34:05.645Z,101533.47
2023-04-04T00:36:54.393Z,101529.81
2023-04-04T00:39:43.366Z,101531.34
2023-04-04T00:42:35.091Z,101527.84
2023-04-04T00:45:23.681Z,101536.84
2023-04-04T00:48:12.339Z,101520.31
2023-04-04T00:51:00.940Z,101521.13
2023-04-04T00:53:50.701Z,101523.28
2023-04-04T00:56:39.766Z,101522.63
2023-04-04T00:59:30.137Z,101525.81
2023-04-04T01:02:21.523Z,101522.78
2023-04-04T01:05:11.095Z,101523.47
2023-04-04T01:07:59.849Z,101519.13
2023-04-04T01:10:48.380Z,101516.78
2023-04-04T01:13:37.156Z,101517.75
2023-04-04T01:16:27.249Z,101512.75
2023-04-04T01:19:20.044Z,101510.75
2023-04-04T01:22:10.387Z,101512.09
2023-04-04T01:25:00.258Z,101509.72
2023-04-04T01:27:50.360Z,101510.75
2023-04-04T01:30:41.999Z,101511.09
2023-04-04T01:33:33.380Z,101509.44
2023-04-04T01:36:29.896Z,101510.75
2023-04-04T01:39:24.951Z,101509.94
2023-04-04T01:42:13.683Z,101509.06
2023-04-04T01:45:05.673Z,101510.13
2023-04-04T01:47:54.298Z,101503.78
2023-04-04T01:50:42.968Z,101497.06
2023-04-04T01:53:32.005Z,101497.44
2023-04-04T01:56:20.626Z,101500.41
2023-04-04T01:59:09.315Z,101487.25
2023-04-04T02:01:59.267Z,101483.06
2023-04-04T02:04:47.970Z,101486.41
2023-04-04T02:07:36.538Z,101481.72
2023-04-04T02:10:25.302Z,101485.41
2023-04-04T02:13:13.884Z,101478.41
2023-04-04T02:16:02.667Z,101485.09
2023-04-04T02:18:52.980Z,101481.41
2023-04-04T02:21:41.591Z,101481.06
2023-04-04T02:24:30.219Z,101480.41
2023-04-04T02:27:18.903Z,101476.44
2023-04-04T02:30:08.820Z,101472.91
2023-04-04T02:33:01.443Z,101473.06
2023-04-04T02:35:51.425Z,101476.38
2023-04-04T02:38:40.053Z,101475.78
2023-04-04T02:41:29.027Z,101481.44
2023-04-04T02:44:17.658Z,101471.09
2023-04-04T02:47:07.864Z,101474.44
2023-04-04T02:49:56.720Z,101476.13
2023-04-04T02:52:46.714Z,101473.44
2023-04-04T02:55:35.452Z,101469.75
2023-04-04T02:58:24.096Z,101467.75
2023-04-04T03:01:12.794Z,101466.44
2023-04-04T03:04:03.159Z,101472.09
2023-04-04T03:06:52.238Z,101469.25
2023-04-04T03:09:45.125Z,101472.75
2023-04-04T03:12:33.707Z,101472.75
2023-04-04T03:15:22.520Z,101469.41
2023-04-04T03:18:11.267Z,101467.06
2023-04-04T03:20:59.960Z,101471.06
2023-04-04T03:23:48.710Z,101468.75
2023-04-04T03:26:38.711Z,101466.09
2023-04-04T03:29:27.396Z,101469.41
2023-04-04T03:32:16.004Z,101472.09
2023-04-04T03:35:04.785Z,101464.91
2023-04-04T03:37:54.689Z,101468.41
2023-04-04T03:40:44.050Z,101462.25
2023-04-04T03:43:34.523Z,101468.06
2023-04-04T03:46:23.142Z,101464.38
2023-04-04T03:49:11.791Z,101463.72
2023-04-04T03:52:02.235Z,101456.72
2023-04-04T03:54:50.850Z,101459.88
2023-04-04T03:57:39.439Z,101458.91
2023-04-04T04:00:29.426Z,101452.88
2023-04-04T04:03:18.080Z,101460.91
2023-04-04T04:06:06.892Z,101456.72
2023-04-04T04:08:56.351Z,101453.03
2023-04-04T04:11:44.957Z,101458.09
2023-04-04T04:14:33.660Z,101457.56
2023-04-04T04:17:23.817Z,101463.06
2023-04-04T04:20:13.415Z,101461.06
2023-04-04T04:23:02.002Z,101464.09
2023-04-04T04:25:50.689Z,101462.22
2023-04-04T04:28:39.397Z,101469.44
2023-04-04T04:31:28.056Z,101462.38
2023-04-04T04:34:18.116Z,101469.72
2023-04-04T04:37:06.693Z,101469.22
2023-04-04T04:39:55.432Z,101468.06
2023-04-04T04:42:47.047Z,101472.75
2023-04-04T04:45:35.648Z,101466.06
2023-04-04T04:48:24.302Z,101466.06
2023-04-04T04:51:15.093Z,101464.09
2023-04-04T04:54:03.647Z,101463.38
2023-04-04T04:56:52.224Z,101471.44
2023-04-04T04:59:41.327Z,101463.09
2023-04-04T05:02:30.056Z,101470.56
2023-04-04T05:05:18.688Z,101467.44
2023-04-04T05:08:08.742Z,101473.25
2023-04-04T05:10:57.306Z,101479.28
2023-04-04T05:13:46.331Z,101476.59
2023-04-04T05:16:35.564Z,101482.94
2023-04-04T05:19:24.380Z,101486.75
2023-04-04T05:22:12.945Z,101492.09
2023-04-04T05:25:03.257Z,101489.72
2023-04-04T05:27:52.213Z,101494.09
2023-04-04T05:30:41.894Z,101489.09
2023-04-04T05:33:31.133Z,101505.47
2023-04-04T05:36:19.813Z,101500.47
2023-04-04T05:39:08.365Z,101503.13
2023-04-04T05:41:58.326Z,101503.44
2023-04-04T05:44:46.910Z,101504.28
2023-04-04T05:47:35.683Z,101509.78
2023-04-04T05:50:24.451Z,101508.09
2023-04-04T05:53:12.987Z,101502.47
2023-04-04T05:56:02.333Z,101513.44
2023-04-04T05:58:52.383Z,101510.63
2023-04-04T06:01:41.232Z,101514.66
2023-04-04T06:04:29.876Z,101516.84
2023-04-04T06:07:18.659Z,101509.47
2023-04-04T06:10:08.733Z,101513.81
2023-04-04T06:12:57.348Z,101512.47
2023-04-04T06:15:47.353Z,101515.13
2023-04-04T06:18:36.184Z,101512.44
2023-04-04T06:21:24.925Z,101513.44
2023-04-04T06:24:13.448Z,101518.78
2023-04-04T06:27:01.989Z,101507.63
2023-04-04T06:29:50.558Z,101507.97
2023-04-04T06:32:40.522Z,101509.13
2023-04-04T06:35:29.095Z,101509.13
2023-04-04T06:38:17.702Z,101499.78
2023-04-04T06:41:06.700Z,101505.44
2023-04-04T06:43:55.440Z,101501.72
2023-04-04T06:46:44.702Z,101497.56
2023-04-04T06:49:35.058Z,101498.44
2023-04-04T06:52:23.703Z,101498.81
2023-04-04T06:55:13.195Z,101496.13
2023-04-04T06:58:02.017Z,101501.47
2023-04-04T07:00:50.621Z,101494.75
2023-04-04T07:03:39.181Z,101495.94
2023-04-04T07:06:30.005Z,101492.25
2023-04-04T07:09:29.596Z,101491.81
2023-04-04T07:12:18.735Z,101491.81
2023-04-04T07:15:08.341Z,101497.44
2023-04-04T07:17:57.230Z,101501.78
2023-04-04T07:20:48.438Z,101501.56
2023-04-04T07:23:38.430Z,101497.44
2023-04-04T07:26:27.887Z,101493.41
2023-04-04T07:29:16.500Z,101498.06
2023-04-04T07:32:05.078Z,101494.72
2023-04-04T07:34:53.724Z,101498.38
2023-04-04T07:37:42.279Z,101492.72
2023-04-04T07:40:32.397Z,101495.69
2023-04-04T07:43:21.406Z,101491.53
2023-04-04T07:46:10.084Z,101497.19
2023-04-04T07:48:59.532Z,101496.75
2023-04-04T07:51:48.989Z,101497.59
2023-04-04T07:54:37.646Z,101494.22
2023-04-04T07:57:27.665Z,101502.06
2023-04-04T08:00:17.696Z,101499.53
2023-04-04T08:03:06.510Z,101494.19
2023-04-04T08:05:55.509Z,101495.72
2023-04-04T08:08:48.158Z,101494.78
2023-04-04T08:11:36.729Z,101489.78
2023-04-04T08:14:27.010Z,101496.47
2023-04-04T08:17:18.940Z,101486.69
2023-04-04T08:20:08.568Z,101485.41
2023-04-04T08:22:57.451Z,101484.09
2023-04-04T08:25:46.273Z,101490.50
2023-04-04T08:28:34.895Z,101472.06
2023-04-04T08:31:25.025Z,101478.97
2023-04-04T08:34:13.733Z,101475.75
2023-04-04T08:37:02.372Z,101475.63
2023-04-04T08:39:51.210Z,101476.13
2023-04-04T08:42:43.263Z,101475.34
2023-04-04T08:45:33.333Z,101477.50
2023-04-04T08:48:29.734Z,101467.81
2023-04-04T08:51:19.396Z,101474.50
2023-04-04T08:54:08.244Z,101467.84
2023-04-04T08:56:57.068Z,101465.50
2023-04-04T08:59:45.973Z,101468.69
2023-04-04T09:02:36.605Z,101468.13
2023-04-04T09:05:27.346Z,101462.28
2023-04-04T09:08:16.611Z,101457.94
2023-04-04T09:11:05.977Z,101458.41
2023-04-04T09:13:56.860Z,101457.41
2023-04-04T09:16:45.515Z,101463.44
2023-04-04T09:19:34.356Z,101457.66
2023-04-04T09:22:24.697Z,101460.31
2023-04-04T09:25:13.376Z,101458.94
2023-04-04T09:28:03.056Z,101458.66
2023-04-04T09:30:52.139Z,101449.03
2023-04-04T09:33:40.744Z,101459.31
2023-04-04T09:36:30.180Z,101459.59
2023-04-04T09:39:23.159Z,101464.59
2023-04-04T09:42:12.411Z,101464.59
2023-04-04T09:45:01.114Z,101461.28
2023-04-04T09:47:49.830Z,101461.94
2023-04-04T09:50:39.853Z,101461.97
2023-04-04T09:53:28.721Z,101462.72
2023-04-04T09:56:18.824Z,101466.84
2023-04-04T09:59:08.679Z,101453.31
2023-04-04T10:01:57.438Z,101457.00
2023-04-04T10:04:48.889Z,101455.66
2023-04-04T10:07:42.306Z,101450.63
2023-04-04T10:10:32.924Z,101448.22
2023-04-04T10:13:28.202Z,101450.31
2023-04-04T10:16:17.683Z,101451.13
2023-04-04T10:19:08.723Z,101447.00
2023-04-04T10:21:57.485Z,101456.28
2023-04-04T10:24:46.166Z,101442.78
2023-04-04T10:27:35.380Z,101441.78
2023-04-04T10:30:25.622Z,101454.34
2023-04-04T10:33:22.854Z,101445.38
2023-04-04T10:36:13.970Z,101452.09
2023-04-04T10:39:20.751Z,101448.78
2023-04-04T10:42:09.584Z,101438.56
2023-04-04T10:45:09.142Z,101437.34
2023-04-04T10:48:10.224Z,101427.78
2023-04-04T10:51:01.060Z,101434.25
2023-04-04T10:53:50.020Z,101424.38
2023-04-04T10:56:39.100Z,101422.88
2023-04-04T10:59:28.185Z,101421.50
2023-04-04T11:02:18.201Z,101421.88
2023-04-04T11:05:13.682Z,101418.69
2023-04-04T11:08:08.587Z,101414.50
2023-04-04T11:11:00.386Z,101416.16
2023-04-04T11:14:01.816Z,101419.09
2023-04-04T11:16:57.785Z,101414.22
2023-04-04T11:20:00.423Z,101420.34
2023-04-04T11:22:52.642Z,101413.34
2023-04-04T11:25:42.759Z,101408.84
2023-04-04T11:28:46.295Z,101398.13
2023-04-04T11:31:35.663Z,101398.13
2023-04-04T11:34:32.818Z,101396.56
2023-04-04T11:37:22.000Z,101394.75
2023-04-04T11:40:13.962Z,101397.38
2023-04-04T11:43:04.409Z,101384.28
2023-04-04T11:45:53.103Z,101378.00
2023-04-04T11:48:41.910Z,101370.34
2023-04-04T11:51:30.416Z,101370.81
2023-04-04T11:54:19.817Z,101380.63
2023-04-04T11:57:10.196Z,101372.28
2023-04-04T11:59:59.114Z,101371.03
2023-04-04T12:02:47.889Z,101371.03
2023-04-04T12:05:36.777Z,101371.69
2023-04-04T12:08:25.434Z,101377.00
2023-04-04T12:11:18.666Z,101364.63
2023-04-04T12:14:17.432Z,101357.25
2023-04-04T12:17:06.138Z,101353.00
2023-04-04T12:19:54.765Z,101357.72
2023-04-04T12:22:44.071Z,101363.88
2023-04-04T12:25:34.067Z,101345.91
2023-04-04T12:28:23.182Z,101346.44
2023-04-04T12:31:14.316Z,101343.88
2023-04-04T12:34:03.077Z,101343.69
2023-04-04T12:36:54.065Z,101341.00
2023-04-04T12:39:49.326Z,101347.09
2023-04-04T12:42:37.995Z,101338.13
2023-04-04T12:45:28.408Z,101329.84
2023-04-04T12:48:19.069Z,101330.66
2023-04-04T12:51:08.854Z,101337.88
2023-04-04T12:53:58.350Z,101337.56
2023-04-04T12:56:47.051Z,101327.59
2023-04-04T12:59:37.569Z,101331.66
2023-04-04T13:02:29.537Z,101333.00
2023-04-04T13:05:22.029Z,101327.22
2023-04-04T13:08:11.428Z,101322.03
2023-04-04T13:11:04.394Z,101320.00
2023-04-04T13:14:02.527Z,101320.19
2023-04-04T13:17:04.455Z,101306.88
2023-04-04T13:19:53.348Z,101312.59
2023-04-04T13:22:43.576Z,101298.56
2023-04-04T13:25:32.139Z,101299.47
2023-04-04T13:28:21.369Z,101281.34
2023-04-04T13:31:11.867Z,101300.47
2023-04-04T13:34:00.584Z,101285.75
2023-04-04T13:36:49.125Z,101289.69
2023-04-04T13:39:39.362Z,101288.72
2023-04-04T13:42:31.670Z,101282.78
2023-04-04T13:45:21.205Z,101280.50
2023-04-04T13:48:10.191Z,101277.31
2023-04-04T13:50:58.934Z,101276.00
2023-04-04T13:53:48.948Z,101271.03
2023-04-04T13:56:38.918Z,101274.59
2023-04-04T13:59:27.725Z,101271.72
2023-04-04T14:02:16.453Z,101272.75
2023-04-04T14:05:05.102Z,101268.88
2023-04-04T14:07:53.748Z,101264.34
2023-04-04T14:10:42.335Z,101256.53
2023-04-04T14:13:32.869Z,101263.81
2023-04-04T14:16:22.953Z,101262.13
2023-04-04T14:19:11.708Z,101253.91
2023-04-04T14:22:00.393Z,101249.94
2023-04-04T14:24:48.941Z,101246.56
2023-04-04T14:27:37.577Z,101257.59
2023-04-04T14:30:27.665Z,101256.69
2023-04-04T14:33:16.394Z,101249.81
2023-04-04T14:36:07.849Z,101249.97
2023-04-04T14:38:59.475Z,101251.63
2023-04-04T14:41:48.049Z,101241.97
2023-04-04T14:44:36.656Z,101243.44
2023-04-04T14:47:26.979Z,101253.84
2023-04-04T14:50:15.656Z,101254.53
2023-04-04T14:53:04.566Z,101242.81
2023-04-04T14:55:53.453Z,101236.91
2023-04-04T14:58:44.550Z,101246.75
2023-04-04T15:01:33.347Z,101235.31
2023-04-04T15:04:23.385Z,101238.16
2023-04-04T15:07:12.036Z,101236.22
2023-04-04T15:10:00.722Z,101230.94
2023-04-04T15:12:49.306Z,101235.88
2023-04-04T15:15:37.942Z,101232.22
2023-04-04T15:18:26.642Z,101227.78
2023-04-04T15:21:16.755Z,101233.66
2023-04-04T15:24:05.817Z,101232.28
2023-04-04T15:26:56.475Z,101233.41
2023-04-04T15:29:46.062Z,101223.63
2023-04-04T15:32:34.736Z,101225.28
2023-04-04T15:35:23.850Z,101232.59
2023-04-04T15:38:13.883Z,101226.28
2023-04-04T15:41:02.542Z,101221.25
2023-04-04T15:43:51.419Z,101217.56
2023-04-04T15:46:39.978Z,101217.00
2023-04-04T15:49:29.077Z,101217.91
2023-04-04T15:52:17.818Z,101226.94
2023-04-04T15:55:12.880Z,101228.88
2023-04-04T15:58:01.601Z,101222.41
2023-04-04T16:00:50.297Z,101224.44
2023-04-04T16:03:39.155Z,101215.94
2023-04-04T16:06:30.026Z,101208.13
2023-04-04T16:09:18.856Z,101223.41
2023-04-04T16:12:09.192Z,101215.88
2023-04-04T16:14:57.837Z,101210.47
2023-04-04T16:17:47.107Z,101217.81
2023-04-04T16:20:36.146Z,101216.19
2023-04-04T16:23:24.751Z,101214.09
2023-04-04T16:26:13.369Z,101210.59
2023-04-04T16:29:04.165Z,101212.44
2023-04-04T16:31:52.852Z,101219.91
2023-04-04T16:34:41.575Z,101207.28
2023-04-04T16:37:30.426Z,101210.44
2023-04-04T16:40:19.297Z,101207.94
2023-04-04T16:43:07.884Z,101207.28
2023-04-04T16:45:57.816Z,101207.28
2023-04-04T16:48:46.547Z,101211.81
2023-04-04T16:51:35.212Z,101217.25
2023-04-04T16:54:24.138Z,101209.22
2023-04-04T16:57:13.351Z,101201.91
2023-04-04T17:00:01.921Z,101208.66
2023-04-04T17:02:52.022Z,101197.06
2023-04-04T17:05:41.531Z,101198.81
2023-04-04T17:08:30.259Z,101195.84
2023-04-04T17:11:19.089Z,101200.19
2023-04-04T17:14:08.309Z,101197.56
2023-04-04T17:17:00.570Z,101194.84
2023-04-04T17:19:51.109Z,101195.66
2023-04-04T17:22:39.713Z,101188.91
2023-04-04T17:25:29.313Z,101197.38
2023-04-04T17:28:19.742Z,101197.84
2023-04-04T17:31:08.374Z,101200.78
2023-04-04T17:33:56.947Z,101204.38
2023-04-04T17:36:47.134Z,101203.72
2023-04-04T17:39:35.750Z,101207.44
2023-04-04T17:42:24.564Z,101204.19
2023-04-04T17:45:13.376Z,101202.25
2023-04-04T17:48:02.274Z,101201.44
2023-04-04T17:50:51.927Z,101204.34
2023-04-04T17:53:42.329Z,101206.34
2023-04-04T17:56:31.665Z,101206.19
2023-04-04T17:59:21.016Z,101204.88
2023-04-04T18:02:10.087Z,101204.97
2023-04-04T18:04:58.677Z,101205.22
2023-04-04T18:07:47.324Z,101206.16
2023-04-04T18:10:37.369Z,101212.28
2023-04-04T18:13:26.166Z,101211.03
2023-04-04T18:16:14.825Z,101206.47
2023-04-04T18:19:03.495Z,101213.25
2023-04-04T18:21:53.021Z,101211.72
2023-04-04T18:24:42.091Z,101217.72
2023-04-04T18:27:32.444Z,101210.59
2023-04-04T18:30:21.201Z,101213.56
2023-04-04T18:33:09.931Z,101210.81
2023-04-04T18:36:00.042Z,101214.22
2023-04-04T18:38:48.818Z,101218.06
2023-04-04T18:41:37.561Z,101213.94
2023-04-04T18:44:27.568Z,101221.28
2023-04-04T18:47:16.169Z,101217.50
2023-04-04T18:50:05.203Z,101217.25
2023-04-04T18:52:55.392Z,101223.22
2023-04-04T18:55:44.128Z,101226.63
2023-04-04T18:58:34.217Z,101227.66
2023-04-04T19:01:24.539Z,101218.72
2023-04-04T19:04:13.264Z,101224.25
2023-04-04T19:07:06.441Z,101222.41
2023-04-04T19:09:55.489Z,101222.03
2023-04-04T19:12:44.164Z,101227.41
2023-04-04T19:15:33.024Z,101224.88
2023-04-04T19:18:23.617Z,101216.59
2023-04-04T19:21:12.282Z,101213.75
2023-04-04T19:24:04.262Z,101224.16
2023-04-04T19:26:53.205Z,101215.13
2023-04-04T19:29:41.843Z,101219.19
2023-04-04T19:32:33.886Z,101212.44
2023-04-04T19:35:54.770Z,101216.13
2023-04-04T19:38:44.302Z,101213.19
2023-04-04T19:41:36.140Z,101218.72
2023-04-04T19:44:25.756Z,101206.84
2023-04-04T19:47:20.775Z,101210.31
2023-04-04T19:50:16.247Z,101215.13
2023-04-04T19:53:07.287Z,101209.59
2023-04-04T19:55:56.341Z,101212.81
2023-04-04T19:58:45.593Z,101214.41
2023-04-04T20:01:35.412Z,101217.69
2023-04-04T20:04:24.276Z,101214.00
2023-04-04T20:07:13.066Z,101209.69
2023-04-04T20:10:03.073Z,101212.06
2023-04-04T20:12:52.133Z,101211.09
2023-04-04T20:15:59.840Z,101213.38
2023-04-04T20:18:49.887Z,101207.53
2023-04-04T20:21:38.735Z,101211.88
2023-04-04T20:24:28.466Z,101213.91
2023-04-04T20:27:26.732Z,101207.28
2023-04-04T20:30:16.661Z,101211.47
2023-04-04T20:33:09.846Z,101207.16
2023-04-04T20:35:59.583Z,101204.75
2023-04-04T20:38:49.443Z,101212.78
2023-04-04T20:41:38.053Z,101210.22
2023-04-04T20:44:28.786Z,101204.19
2023-04-04T20:47:45.215Z,101204.66
2023-04-04T20:50:47.424Z,101209.09
2023-04-04T20:53:36.754Z,101208.50
2023-04-04T20:56:57.188Z,101213.38
2023-04-04T20:59:50.065Z,101204.13
2023-04-04T21:02:39.864Z,101207.28
2023-04-04T21:05:29.325Z,101205.25
2023-04-04T21:08:38.441Z,101209.50
2023-04-04T21:11:30.066Z,101207.94
2023-04-04T21:14:23.602Z,101207.94
2023-04-04T21:17:13.657Z,101210.88
2023-04-04T21:20:02.586Z,101205.44
2023-04-04T21:22:51.898Z,101201.84
2023-04-04T21:25:44.819Z,101192.03
2023-04-04T21:28:41.354Z,101199.56
2023-04-04T21:31:39.997Z,101197.53
2023-04-04T21:34:30.349Z,101196.91
2023-04-04T21:37:21.407Z,101195.97
2023-04-04T21:40:11.858Z,101196.69
2023-04-04T21:43:00.696Z,101191.06
2023-04-04T21:45:49.270Z,101185.41
2023-04-04T21:48:38.190Z,101184.81
2023-04-04T21:51:28.312Z,101176.31
2023-04-04T21:54:17.046Z,101182.41
2023-04-04T21:57:05.887Z,101176.75
2023-04-04T21:59:54.585Z,101174.84
2023-04-04T22:02:43.609Z,101179.16
2023-04-04T22:05:39.115Z,101174.91
2023-04-04T22:08:29.899Z,101174.16
2023-04-04T22:11:19.471Z,101178.63
2023-04-04T22:14:08.266Z,101175.81
2023-04-04T22:16:58.990Z,101174.25
2023-04-04T22:19:58.852Z,101172.75
2023-04-04T22:22:47.786Z,101167.25
2023-04-04T22:25:38.230Z,101171.56
2023-04-04T22:28:28.800Z,101169.06
2023-04-04T22:31:17.490Z,101164.78
2023-04-04T22:34:06.488Z,101172.50
2023-04-04T22:36:55.510Z,101166.09
2023-04-04T22:39:44.068Z,101175.28
2023-04-04T22:42:35.792Z,101166.34
2023-04-04T22:45:25.628Z,101166.94
2023-04-04T22:48:15.243Z,101167.63
2023-04-04T22:51:03.886Z,101167.47
2023-04-04T22:53:57.719Z,101168.09
2023-04-04T22:56:47.147Z,101168.09
2023-04-04T22:59:37.712Z,101163.94
2023-04-04T23:02:27.809Z,101166.44
2023-04-04T23:05:18.831Z,101164.31
2023-04-04T23:08:08.814Z,101163.25
2023-04-04T23:10:58.074Z,101159.56
2023-04-04T23:13:47.700Z,101165.03
2023-04-04T23:16:38.826Z,101161.47
2023-04-04T23:19:27.767Z,101158.97
2023-04-04T23:22:25.475Z,101157.78
2023-04-04T23:25:14.922Z,101152.16
2023-04-04T23:28:04.045Z,101158.94
2023-04-04T23:30:54.940Z,101152.69
2023-04-04T23:33:45.603Z,101154.53
2023-04-04T23:36:36.295Z,101147.91
2023-04-04T23:39:27.062Z,101151.50
2023-04-04T23:42:16.334Z,101154.09
2023-04-04T23:45:06.548Z,101157.41
2023-04-04T23:47:55.781Z,101148.66
2023-04-04T23:50:46.545Z,101145.72
2023-04-04T23:53:35.786Z,101142.69
2023-04-04T23:56:25.223Z,101141.03
2023-04-04T23:59:14.676Z,101136.75
